Time;durP1;ratioP1;P1;durP2;ratioP2;P2;SDS_P1;SDS_P2;PMS_P1;PMS_P2;Temp;Humidity;BMP_temperature;BMP_pressure;BME280_temperature;BME280_humidity;BME280_pressure;Samples;Min_cycle;Max_cycle;Signal;HPM_P1;HPM_P2
2023/05/25 00:01:43;;;;;;;;;;;16.90;69.70;;;;;;5088110;28;20268;-71
2023/05/25 00:04:09;;;;;;;;;;;16.90;69.60;;;;;;5091754;28;19912;-71
2023/05/25 00:06:40;;;;;;;;;;;16.80;69.60;;;;;;5091595;28;19912;-71
2023/05/25 00:09:06;;;;;;;;;;;16.80;69.50;;;;;;5091683;28;19908;-71
2023/05/25 00:11:31;;;;;;;;;;;16.80;69.50;;;;;;5091753;28;19920;-71
2023/05/25 00:13:57;;;;;;;;;;;16.80;69.50;;;;;;5091592;28;20000;-71
2023/05/25 00:16:22;;;;;;;;;;;16.80;69.60;;;;;;5090215;28;20372;-71
2023/05/25 00:18:48;;;;;;;;;;;16.80;70.10;;;;;;5091421;28;20365;-71
2023/05/25 00:21:14;;;;;;;;;;;16.80;69.60;;;;;;5091462;28;19915;-71
2023/05/25 00:23:40;;;;;;;;;;;16.80;69.60;;;;;;5091384;28;19915;-71
2023/05/25 00:26:06;;;;;;;;;;;16.70;69.60;;;;;;5091388;28;20007;-71
2023/05/25 00:28:32;;;;;;;;;;;16.70;69.70;;;;;;5091274;28;20344;-71
2023/05/25 00:30:57;;;;;;;;;;;16.70;69.70;;;;;;5091101;28;20391;-71
2023/05/25 00:33:23;;;;;;;;;;;16.70;69.60;;;;;;5091193;28;19908;-71
2023/05/25 00:35:49;;;;;;;;;;;16.70;69.60;;;;;;5091073;28;19912;-71
2023/05/25 00:38:16;;;;;;;;;;;16.70;69.50;;;;;;5091123;28;19909;-71
2023/05/25 00:40:41;;;;;;;;;;;16.70;69.60;;;;;;5090931;28;20485;-71
2023/05/25 00:43:07;;;;;;;;;;;16.70;69.60;;;;;;5090973;28;19954;-71
2023/05/25 00:45:33;;;;;;;;;;;16.70;69.60;;;;;;5090926;28;20284;-71
2023/05/25 00:47:59;;;;;;;;;;;16.70;69.70;;;;;;5089881;28;19922;-71
2023/05/25 00:50:35;;;;;;;;;;;16.70;69.70;;;;;;5090870;28;20388;-71
2023/05/25 00:53:00;;;;;;;;;;;16.70;69.60;;;;;;5091082;28;19916;-71
2023/05/25 00:55:28;;;;;;;;;;;16.70;69.60;;;;;;5089545;28;19919;-71
2023/05/25 00:57:56;;;;;;;;;;;16.70;69.60;;;;;;5090693;28;20352;-71
2023/05/25 01:00:22;;;;;;;;;;;16.70;69.60;;;;;;5090808;28;19970;-71
2023/05/25 01:02:51;;;;;;;;;;;16.70;69.60;;;;;;5090447;28;19919;-71
2023/05/25 01:05:20;;;;;;;;;;;16.60;69.50;;;;;;5090536;28;20283;-71
2023/05/25 01:07:45;;;;;;;;;;;16.50;69.60;;;;;;5090921;28;19908;-71
2023/05/25 01:10:13;;;;;;;;;;;16.50;69.60;;;;;;5090502;28;20128;-71
2023/05/25 01:12:41;;;;;;;;;;;16.40;69.50;;;;;;5090316;28;20170;-71
2023/05/25 01:15:07;;;;;;;;;;;16.30;69.50;;;;;;5089223;28;20002;-71
2023/05/25 01:17:36;;;;;;;;;;;16.10;69.50;;;;;;5090349;28;19918;-71
2023/05/25 01:20:05;;;;;;;;;;;16.00;69.50;;;;;;5090504;28;19920;-71
2023/05/25 01:22:37;;;;;;;;;;;15.90;69.60;;;;;;5090301;28;19912;-71
2023/05/25 01:25:13;;;;;;;;;;;15.80;69.50;;;;;;5090198;28;19916;-71
2023/05/25 01:27:58;;;;;;;;;;;15.70;69.60;;;;;;5090229;28;19911;-71
2023/05/25 01:30:25;;;;;;;;;;;15.70;69.60;;;;;;5090186;28;20271;-71
2023/05/25 01:32:52;;;;;;;;;;;15.60;69.60;;;;;;5089948;28;19916;-71
2023/05/25 01:35:19;;;;;;;;;;;15.50;69.60;;;;;;5088831;28;19989;-71
2023/05/25 01:37:45;;;;;;;;;;;15.50;69.60;;;;;;5089958;28;19908;-71
2023/05/25 01:40:12;;;;;;;;;;;15.40;69.60;;;;;;5089915;28;20014;-71
2023/05/25 01:42:37;;;;;;;;;;;15.40;69.60;;;;;;5089785;28;19914;-71
2023/05/25 01:45:03;;;;;;;;;;;15.40;69.60;;;;;;5089879;28;19908;-71
2023/05/25 01:47:39;;;;;;;;;;;15.50;69.70;;;;;;5089816;28;19912;-71
2023/05/25 01:50:08;;;;;;;;;;;15.50;70.10;;;;;;5089677;28;20389;-71
2023/05/25 01:52:35;;;;;;;;;;;15.50;69.60;;;;;;5089755;28;19908;-71
2023/05/25 01:55:10;;;;;;;;;;;15.60;69.60;;;;;;5089630;28;19908;-71
2023/05/25 01:57:37;;;;;;;;;;;15.60;69.60;;;;;;5089498;28;19918;-71
2023/05/25 02:00:03;;;;;;;;;;;15.50;69.50;;;;;;5089422;28;19918;-71
2023/05/25 02:02:30;;;;;;;;;;;15.60;69.60;;;;;;5089223;28;19924;-71
2023/05/25 02:04:55;;;;;;;;;;;15.50;69.50;;;;;;5089397;28;19931;-71
2023/05/25 02:07:24;;;;;;;;;;;15.40;69.40;;;;;;5088054;28;20365;-71
2023/05/25 02:09:50;;;;;;;;;;;15.40;69.40;;;;;;5089390;28;19970;-71
2023/05/25 02:12:16;;;;;;;;;;;15.30;69.40;;;;;;5089292;28;19923;-71
2023/05/25 02:14:41;;;;;;;;;;;15.30;69.50;;;;;;5089281;28;19942;-71
2023/05/25 02:17:07;;;;;;;;;;;15.30;69.50;;;;;;5089134;28;20284;-71
2023/05/25 02:19:34;;;;;;;;;;;15.20;69.50;;;;;;5089370;28;19967;-71
2023/05/25 02:22:00;;;;;;;;;;;15.10;69.50;;;;;;5089089;28;19918;-71
2023/05/25 02:24:26;;;;;;;;;;;15.00;69.50;;;;;;5088843;28;19912;-71
2023/05/25 02:26:51;;;;;;;;;;;14.90;69.50;;;;;;5088877;28;19912;-71
2023/05/25 02:29:17;;;;;;;;;;;14.80;69.40;;;;;;5089081;28;19920;-71
2023/05/25 02:31:42;;;;;;;;;;;14.70;69.40;;;;;;5088896;28;19959;-71
2023/05/25 02:34:08;;;;;;;;;;;14.60;69.50;;;;;;5089305;28;19916;-71
2023/05/25 02:36:35;;;;;;;;;;;14.50;69.50;;;;;;5087583;28;20249;-71
2023/05/25 02:39:00;;;;;;;;;;;14.50;69.50;;;;;;5087396;28;19916;-71
2023/05/25 02:41:26;;;;;;;;;;;14.50;69.40;;;;;;5088760;28;19931;-71
2023/05/25 02:43:55;;;;;;;;;;;14.40;69.40;;;;;;5088795;28;19923;-72
2023/05/25 02:46:22;;;;;;;;;;;14.40;69.60;;;;;;5088640;28;19935;-71
2023/05/25 02:48:47;;;;;;;;;;;14.30;69.30;;;;;;5088746;28;19939;-71
2023/05/25 02:51:13;;;;;;;;;;;14.30;69.30;;;;;;5088744;28;19908;-71
2023/05/25 02:53:38;;;;;;;;;;;14.10;69.30;;;;;;5088381;28;19912;-71
2023/05/25 02:56:05;;;;;;;;;;;14.10;69.40;;;;;;5088596;28;19922;-71
2023/05/25 02:58:30;;;;;;;;;;;14.00;69.40;;;;;;5088517;28;19912;-71
2023/05/25 03:00:58;;;;;;;;;;;14.00;69.50;;;;;;5088349;28;19927;-71
2023/05/25 03:03:24;;;;;;;;;;;14.10;69.50;;;;;;5088209;28;19924;-71
2023/05/25 03:05:50;;;;;;;;;;;14.10;69.50;;;;;;5088354;28;19918;-71
2023/05/25 03:08:16;;;;;;;;;;;14.10;69.50;;;;;;5088452;28;19954;-71
2023/05/25 03:10:42;;;;;;;;;;;14.00;69.50;;;;;;5088479;28;19969;-71
2023/05/25 03:13:07;;;;;;;;;;;14.00;69.50;;;;;;5088247;28;19912;-71
2023/05/25 03:15:33;;;;;;;;;;;14.00;69.50;;;;;;5088273;28;20420;-71
2023/05/25 03:18:00;;;;;;;;;;;14.00;69.40;;;;;;5088238;28;20033;-71
2023/05/25 03:20:26;;;;;;;;;;;14.00;69.40;;;;;;5088103;28;19924;-71
2023/05/25 03:22:51;;;;;;;;;;;14.00;69.40;;;;;;5088035;28;19924;-71
2023/05/25 03:25:17;;;;;;;;;;;13.90;69.30;;;;;;5088074;28;20268;-71
2023/05/25 03:27:42;;;;;;;;;;;13.90;69.40;;;;;;5088124;28;19919;-71
2023/05/25 03:30:08;;;;;;;;;;;14.00;69.40;;;;;;5086802;28;19918;-71
2023/05/25 03:32:35;;;;;;;;;;;14.00;69.60;;;;;;5086714;28;19926;-71
2023/05/25 03:35:00;;;;;;;;;;;13.90;69.30;;;;;;5088010;28;19996;-71
2023/05/25 03:37:26;;;;;;;;;;;13.80;69.30;;;;;;5087252;28;19913;-71
2023/05/25 03:39:51;;;;;;;;;;;13.70;69.30;;;;;;5087877;28;19989;-71
2023/05/25 03:42:17;;;;;;;;;;;13.60;69.30;;;;;;5087930;28;20091;-71
2023/05/25 03:44:42;;;;;;;;;;;13.50;69.30;;;;;;5088017;28;20007;-71
2023/05/25 03:47:08;;;;;;;;;;;13.40;69.30;;;;;;5087948;28;20308;-71
2023/05/25 03:49:34;;;;;;;;;;;13.30;69.30;;;;;;5087836;28;20064;-71
2023/05/25 03:52:00;;;;;;;;;;;13.30;69.40;;;;;;5087754;28;20418;-71
2023/05/25 03:54:25;;;;;;;;;;;13.20;69.30;;;;;;5087916;28;20439;-71
2023/05/25 03:56:51;;;;;;;;;;;13.20;69.40;;;;;;5087952;28;20013;-71
2023/05/25 03:59:17;;;;;;;;;;;13.20;69.40;;;;;;5087662;28;19917;-71
2023/05/25 04:01:43;;;;;;;;;;;13.20;69.40;;;;;;5087465;28;19935;-71
2023/05/25 04:04:09;;;;;;;;;;;13.10;69.30;;;;;;5087660;28;19915;-71
2023/05/25 04:06:36;;;;;;;;;;;13.10;69.30;;;;;;5087560;28;19908;-71
2023/05/25 04:09:04;;;;;;;;;;;13.10;69.30;;;;;;5087645;28;19927;-71
2023/05/25 04:11:30;;;;;;;;;;;13.10;69.20;;;;;;5087705;28;19998;-71
2023/05/25 04:13:55;;;;;;;;;;;13.10;69.10;;;;;;5087584;28;19924;-71
2023/05/25 04:16:21;;;;;;;;;;;13.10;69.20;;;;;;5087496;28;20431;-70
2023/05/25 04:18:47;;;;;;;;;;;13.10;69.10;;;;;;5087545;28;19908;-71
2023/05/25 04:21:12;;;;;;;;;;;13.10;69.00;;;;;;5087862;28;19935;-71
2023/05/25 04:23:38;;;;;;;;;;;13.10;69.00;;;;;;5087526;28;19912;-71
2023/05/25 04:26:04;;;;;;;;;;;13.10;69.00;;;;;;5087477;28;20280;-71
2023/05/25 04:28:31;;;;;;;;;;;13.10;68.90;;;;;;5087503;28;19913;-70
2023/05/25 04:30:56;;;;;;;;;;;13.20;68.90;;;;;;5087566;28;19919;-71
2023/05/25 04:33:23;;;;;;;;;;;13.20;69.30;;;;;;5086097;28;20342;-71
2023/05/25 04:35:49;;;;;;;;;;;13.20;68.70;;;;;;5086136;28;19922;-71
2023/05/25 04:38:16;;;;;;;;;;;13.20;68.70;;;;;;5087527;28;19920;-71
2023/05/25 04:40:42;;;;;;;;;;;13.20;68.80;;;;;;5087382;28;19920;-71
2023/05/25 04:43:10;;;;;;;;;;;13.20;68.80;;;;;;5087331;28;20420;-71
2023/05/25 04:45:35;;;;;;;;;;;13.20;68.80;;;;;;5085899;28;20011;-71
2023/05/25 04:48:01;;;;;;;;;;;13.20;68.80;;;;;;5088179;28;20015;-71
2023/05/25 04:50:27;;;;;;;;;;;13.20;68.90;;;;;;5090791;28;20002;-70
2023/05/25 04:52:53;;;;;;;;;;;13.20;68.90;;;;;;5090706;28;19963;-70
2023/05/25 04:55:19;;;;;;;;;;;13.30;68.80;;;;;;5090794;28;19965;-70
2023/05/25 04:57:44;;;;;;;;;;;13.30;68.60;;;;;;5090613;28;19912;-71
2023/05/25 05:00:11;;;;;;;;;;;13.30;68.50;;;;;;5090653;28;19919;-71
2023/05/25 05:02:36;;;;;;;;;;;13.30;68.90;;;;;;5090507;28;20065;-71
2023/05/25 05:05:02;;;;;;;;;;;13.30;68.40;;;;;;5090692;28;19990;-71
2023/05/25 05:07:28;;;;;;;;;;;13.30;68.40;;;;;;5090499;28;20302;-70
2023/05/25 05:09:53;;;;;;;;;;;13.20;68.30;;;;;;5090464;28;19953;-71
2023/05/25 05:12:19;;;;;;;;;;;13.20;68.30;;;;;;5090362;28;19919;-71
2023/05/25 05:14:45;;;;;;;;;;;13.20;68.30;;;;;;5090462;28;19919;-71
2023/05/25 05:17:11;;;;;;;;;;;13.20;68.30;;;;;;5088913;28;20121;-71
2023/05/25 05:19:37;;;;;;;;;;;13.30;68.40;;;;;;5089964;28;19955;-71
2023/05/25 05:22:02;;;;;;;;;;;13.30;68.40;;;;;;5090129;28;19955;-71
2023/05/25 05:24:28;;;;;;;;;;;13.30;68.40;;;;;;5088858;28;19920;-71
2023/05/25 05:26:53;;;;;;;;;;;13.30;68.40;;;;;;5090037;28;19926;-71
2023/05/25 05:29:19;;;;;;;;;;;13.40;68.30;;;;;;5090063;28;19908;-70
2023/05/25 05:31:45;;;;;;;;;;;13.40;68.30;;;;;;5090045;28;19966;-71
2023/05/25 05:34:10;;;;;;;;;;;13.50;68.40;;;;;;5090302;28;19927;-71
2023/05/25 05:36:37;;;;;;;;;;;13.50;68.40;;;;;;5090330;28;19912;-70
2023/05/25 05:39:02;;;;;;;;;;;13.50;68.40;;;;;;5088486;28;19916;-71
2023/05/25 05:41:28;;;;;;;;;;;13.50;68.40;;;;;;5089914;28;19923;-70
2023/05/25 05:43:54;;;;;;;;;;;13.50;68.40;;;;;;5089850;28;20010;-72
2023/05/25 05:46:19;;;;;;;;;;;13.60;68.50;;;;;;5089796;28;19908;-71
2023/05/25 05:48:45;;;;;;;;;;;13.70;68.50;;;;;;5089672;28;20265;-72
2023/05/25 05:51:11;;;;;;;;;;;13.70;68.50;;;;;;5089840;28;19918;-72
2023/05/25 05:53:36;;;;;;;;;;;13.80;68.90;;;;;;5089482;28;19916;-72
2023/05/25 05:56:02;;;;;;;;;;;14.50;69.30;;;;;;5089571;28;19909;-72
2023/05/25 05:58:28;;;;;;;;;;;15.40;68.40;;;;;;5087927;28;20288;-71
2023/05/25 06:00:55;;;;;;;;;;;16.60;67.80;;;;;;5088345;28;20268;-72
2023/05/25 06:03:23;;;;;;;;;;;17.50;66.60;;;;;;5087944;28;19927;-72
2023/05/25 06:05:49;;;;;;;;;;;18.10;66.80;;;;;;5089450;28;19922;-72
2023/05/25 06:08:15;;;;;;;;;;;19.20;66.60;;;;;;5089064;28;19991;-72
2023/05/25 06:10:41;;;;;;;;;;;20.30;66.00;;;;;;5089140;28;20257;-72
2023/05/25 06:13:07;;;;;;;;;;;21.30;65.40;;;;;;5089183;28;19908;-72
2023/05/25 06:15:32;;;;;;;;;;;22.20;65.10;;;;;;5088852;28;20017;-71
2023/05/25 06:17:58;;;;;;;;;;;22.90;64.80;;;;;;5088897;28;19914;-72
2023/05/25 06:20:23;;;;;;;;;;;23.40;64.40;;;;;;5088890;28;19970;-72
2023/05/25 06:22:49;;;;;;;;;;;23.80;63.90;;;;;;5088965;28;20403;-73
2023/05/25 06:25:15;;;;;;;;;;;23.60;63.90;;;;;;5088909;28;19919;-72
2023/05/25 06:27:40;;;;;;;;;;;23.40;64.80;;;;;;5088722;28;19969;-72
2023/05/25 06:30:07;;;;;;;;;;;23.50;65.40;;;;;;5088691;28;19913;-70
2023/05/25 06:32:33;;;;;;;;;;;23.80;66.00;;;;;;5089035;28;20303;-70
2023/05/25 06:34:58;;;;;;;;;;;24.50;66.00;;;;;;5088649;28;19912;-72
2023/05/25 06:37:24;;;;;;;;;;;25.00;65.60;;;;;;5088218;28;19939;-72
2023/05/25 06:39:50;;;;;;;;;;;25.50;65.30;;;;;;5088708;28;19924;-73
2023/05/25 06:42:15;;;;;;;;;;;25.60;65.40;;;;;;5088606;28;19924;-72
2023/05/25 06:44:41;;;;;;;;;;;25.90;65.50;;;;;;5088389;28;19916;-72
2023/05/25 06:47:06;;;;;;;;;;;26.10;65.70;;;;;;5087184;28;20364;-73
2023/05/25 06:49:32;;;;;;;;;;;26.40;65.40;;;;;;5088423;28;19938;-72
2023/05/25 06:51:58;;;;;;;;;;;26.60;65.20;;;;;;5088111;28;19919;-72
2023/05/25 06:54:23;;;;;;;;;;;26.90;65.50;;;;;;5087911;28;19958;-70
2023/05/25 06:56:49;;;;;;;;;;;26.90;65.60;;;;;;5086566;28;19919;-70
2023/05/25 06:59:15;;;;;;;;;;;26.50;65.80;;;;;;5087640;28;19929;-73
2023/05/25 07:01:40;;;;;;;;;;;26.00;65.80;;;;;;5087905;28;20399;-72
2023/05/25 07:04:06;;;;;;;;;;;25.20;65.70;;;;;;5088246;28;20382;-72
2023/05/25 07:06:31;;;;;;;;;;;24.60;66.90;;;;;;5086703;28;19916;-73
2023/05/25 07:08:57;;;;;;;;;;;24.20;67.00;;;;;;5088070;28;19952;-73
2023/05/25 07:11:23;;;;;;;;;;;23.90;67.50;;;;;;5085909;28;19923;-73
2023/05/25 07:13:48;;;;;;;;;;;24.20;68.30;;;;;;5087891;28;19916;-72
2023/05/25 07:16:14;;;;;;;;;;;24.60;68.20;;;;;;5088146;28;19957;-69
2023/05/25 07:18:40;;;;;;;;;;;25.00;68.70;;;;;;5087764;28;19920;-70
2023/05/25 07:21:08;;;;;;;;;;;25.70;68.50;;;;;;5087606;28;19939;-70
2023/05/25 07:23:34;;;;;;;;;;;26.60;68.30;;;;;;5087475;28;19929;-70
2023/05/25 07:26:00;;;;;;;;;;;27.20;67.90;;;;;;5087484;28;19953;-70
2023/05/25 07:28:26;;;;;;;;;;;27.50;67.70;;;;;;5087694;28;20353;-70
2023/05/25 07:30:51;;;;;;;;;;;27.50;68.00;;;;;;5086508;28;19912;-72
2023/05/25 07:33:17;;;;;;;;;;;27.60;68.50;;;;;;5087611;28;20189;-72
2023/05/25 07:35:42;;;;;;;;;;;28.20;68.80;;;;;;5087816;28;19912;-70
2023/05/25 07:38:08;;;;;;;;;;;28.70;68.30;;;;;;5087519;28;19963;-70
2023/05/25 07:40:33;;;;;;;;;;;28.60;68.10;;;;;;5087427;28;19942;-71
2023/05/25 07:42:59;;;;;;;;;;;28.60;68.40;;;;;;5087130;28;19962;-71
2023/05/25 07:45:25;;;;;;;;;;;28.40;69.00;;;;;;5087357;28;19917;-69
2023/05/25 07:47:50;;;;;;;;;;;28.30;69.00;;;;;;5087110;28;19934;-69
2023/05/25 07:50:16;;;;;;;;;;;28.40;69.50;;;;;;5087086;28;20383;-69
2023/05/25 07:52:42;;;;;;;;;;;28.50;69.60;;;;;;5085574;28;19961;-70
2023/05/25 07:55:07;;;;;;;;;;;28.50;70.00;;;;;;5086944;28;20007;-70
2023/05/25 07:57:33;;;;;;;;;;;28.90;70.40;;;;;;5086780;28;19970;-69
2023/05/25 07:59:59;;;;;;;;;;;29.50;70.40;;;;;;5087154;28;19923;-70
2023/05/25 08:02:24;;;;;;;;;;;30.20;69.80;;;;;;5086550;28;20318;-70
2023/05/25 08:04:50;;;;;;;;;;;30.30;69.50;;;;;;5086639;28;19962;-70
2023/05/25 08:07:19;;;;;;;;;;;30.30;70.00;;;;;;5087014;28;20308;-71
2023/05/25 08:09:45;;;;;;;;;;;30.40;70.20;;;;;;5086277;28;19916;-70
2023/05/25 08:12:10;;;;;;;;;;;30.40;70.40;;;;;;5086110;28;19919;-70
2023/05/25 08:14:36;;;;;;;;;;;30.30;70.40;;;;;;5086488;28;19916;-70
2023/05/25 08:17:03;;;;;;;;;;;30.20;70.90;;;;;;5086533;28;19919;-71
2023/05/25 08:19:30;;;;;;;;;;;30.10;71.20;;;;;;5086430;28;19990;-70
2023/05/25 08:21:56;;;;;;;;;;;30.30;71.70;;;;;;5085779;28;19916;-70
2023/05/25 08:24:22;;;;;;;;;;;30.40;71.10;;;;;;5089216;28;20375;-70
2023/05/25 08:26:47;;;;;;;;;;;30.20;71.40;;;;;;5088548;28;20368;-70
2023/05/25 08:29:13;;;;;;;;;;;30.30;72.40;;;;;;5089377;28;19947;-70
2023/05/25 08:31:40;;;;;;;;;;;30.90;72.20;;;;;;5089952;28;19952;-70
2023/05/25 08:34:06;;;;;;;;;;;31.70;71.60;;;;;;5089533;28;19923;-70
2023/05/25 08:36:33;;;;;;;;;;;32.30;71.20;;;;;;5090020;28;20233;-70
2023/05/25 08:38:58;;;;;;;;;;;32.80;70.90;;;;;;5089859;28;20303;-70
2023/05/25 08:41:24;;;;;;;;;;;32.80;70.50;;;;;;5089022;28;19912;-70
2023/05/25 08:43:50;;;;;;;;;;;32.70;71.10;;;;;;5088852;28;19912;-70
2023/05/25 08:46:20;;;;;;;;;;;32.70;71.40;;;;;;5088551;28;19962;-70
2023/05/25 08:48:47;;;;;;;;;;;32.90;71.30;;;;;;5087628;28;19908;-70
2023/05/25 08:51:14;;;;;;;;;;;33.30;71.00;;;;;;5089936;28;19916;-70
2023/05/25 08:53:40;;;;;;;;;;;33.60;70.60;;;;;;5089210;28;19916;-70
2023/05/25 08:56:25;;;;;;;;;;;33.60;70.00;;;;;;5089378;28;19961;-70
2023/05/25 08:58:51;;;;;;;;;;;33.60;70.10;;;;;;5088102;28;20271;-70
2023/05/25 09:01:18;;;;;;;;;;;33.20;70.20;;;;;;5089638;28;19920;-70
2023/05/25 09:03:45;;;;;;;;;;;33.00;71.40;;;;;;5089234;28;19947;-69
2023/05/25 09:06:11;;;;;;;;;;;33.00;72.00;;;;;;5089567;28;19908;-69
2023/05/25 09:08:38;;;;;;;;;;;33.30;72.20;;;;;;5089793;28;20011;-69
2023/05/25 09:11:05;;;;;;;;;;;33.20;71.70;;;;;;5089304;28;19916;-69
2023/05/25 09:13:31;;;;;;;;;;;32.80;72.20;;;;;;5089270;28;19949;-69
2023/05/25 09:15:56;;;;;;;;;;;32.50;73.10;;;;;;5088766;28;19978;-69
2023/05/25 09:18:22;;;;;;;;;;;32.60;73.30;;;;;;5089663;28;19912;-69
2023/05/25 09:20:47;;;;;;;;;;;32.30;72.80;;;;;;5090579;28;19916;-69
2023/05/25 09:23:13;;;;;;;;;;;31.80;73.70;;;;;;5089841;28;20379;-70
2023/05/25 09:25:39;;;;;;;;;;;31.80;74.40;;;;;;5090635;28;19913;-70
2023/05/25 09:28:06;;;;;;;;;;;32.20;74.20;;;;;;5089046;28;19935;-70
2023/05/25 09:30:34;;;;;;;;;;;32.20;73.90;;;;;;5089953;28;19913;-76
2023/05/25 09:33:12;;;;;;;;;;;31.80;73.80;;;;;;5090100;28;19921;-70
2023/05/25 09:35:38;;;;;;;;;;;31.70;74.70;;;;;;5089287;28;20605;-70
2023/05/25 09:38:05;;;;;;;;;;;32.00;74.80;;;;;;5090049;28;20276;-70
2023/05/25 09:40:32;;;;;;;;;;;32.00;74.80;;;;;;5090371;28;20394;-70
2023/05/25 09:42:58;;;;;;;;;;;32.10;75.10;;;;;;5090007;28;20249;-72
2023/05/25 09:45:23;;;;;;;;;;;32.10;74.80;;;;;;5090149;28;19916;-72
2023/05/25 09:47:53;;;;;;;;;;;32.40;75.00;;;;;;5090013;28;20565;-71
2023/05/25 09:50:18;;;;;;;;;;;32.60;74.80;;;;;;5089474;28;20387;-71
2023/05/25 09:52:44;;;;;;;;;;;32.70;74.70;;;;;;5089288;28;20011;-71
2023/05/25 09:55:10;;;;;;;;;;;32.80;74.50;;;;;;5088315;28;20278;-71
2023/05/25 09:57:36;;;;;;;;;;;32.90;74.80;;;;;;5087780;28;19916;-71
2023/05/25 10:00:04;;;;;;;;;;;32.80;74.70;;;;;;5086732;28;19935;-71
2023/05/25 10:02:30;;;;;;;;;;;32.70;75.10;;;;;;5088161;28;19973;-72
2023/05/25 10:04:56;;;;;;;;;;;33.10;75.50;;;;;;5089831;28;20360;-79
2023/05/25 10:07:22;;;;;;;;;;;33.40;74.80;;;;;;5089029;28;19944;-73
2023/05/25 10:09:49;;;;;;;;;;;33.50;74.80;;;;;;5089823;28;19959;-75
2023/05/25 10:12:16;;;;;;;;;;;33.80;74.80;;;;;;5089819;28;19908;-73
2023/05/25 10:14:42;;;;;;;;;;;33.90;74.80;;;;;;5089907;28;19935;-71
2023/05/25 10:17:09;;;;;;;;;;;34.00;74.90;;;;;;5089831;28;20004;-73
2023/05/25 10:19:40;;;;;;;;;;;34.30;75.00;;;;;;5088182;28;19957;-72
2023/05/25 10:22:18;;;;;;;;;;;34.90;75.00;;;;;;5088260;28;19969;-74
2023/05/25 10:24:55;;;;;;;;;;;35.10;74.20;;;;;;5088592;28;19908;-73
2023/05/25 10:27:22;;;;;;;;;;;34.70;74.60;;;;;;5089218;28;19908;-71
2023/05/25 10:29:49;;;;;;;;;;;34.50;74.40;;;;;;5088722;28;19908;-71
2023/05/25 10:32:17;;;;;;;;;;;34.50;75.20;;;;;;5088806;28;19908;-71
2023/05/25 10:34:44;;;;;;;;;;;34.20;74.70;;;;;;5088721;28;19908;-72
2023/05/25 10:37:11;;;;;;;;;;;34.10;75.20;;;;;;5088364;28;19908;-72
2023/05/25 10:39:37;;;;;;;;;;;34.00;75.30;;;;;;5088780;28;19916;-72
2023/05/25 10:42:03;;;;;;;;;;;34.00;75.30;;;;;;5089164;28;19913;-72
2023/05/25 10:44:29;;;;;;;;;;;34.40;75.20;;;;;;5089226;28;19908;-72
2023/05/25 10:46:55;;;;;;;;;;;34.80;74.80;;;;;;5088905;28;19952;-71
2023/05/25 10:49:34;;;;;;;;;;;35.30;74.40;;;;;;5087431;28;19908;-72
2023/05/25 10:52:00;;;;;;;;;;;35.60;74.00;;;;;;5087336;28;19966;-73
2023/05/25 10:54:30;;;;;;;;;;;35.30;73.80;;;;;;5088623;28;20004;-71
2023/05/25 10:57:09;;;;;;;;;;;34.70;74.30;;;;;;5088318;28;19908;-72
2023/05/25 10:59:39;;;;;;;;;;;34.20;74.90;;;;;;5088170;28;19956;-72
2023/05/25 11:02:05;;;;;;;;;;;34.10;75.50;;;;;;5088309;28;19920;-72
2023/05/25 11:04:35;;;;;;;;;;;34.30;75.50;;;;;;5088473;28;19908;-72
2023/05/25 11:07:01;;;;;;;;;;;34.40;75.20;;;;;;5087044;28;19931;-72
2023/05/25 11:09:35;;;;;;;;;;;34.40;75.60;;;;;;5088369;28;20311;-72
2023/05/25 11:12:02;;;;;;;;;;;34.70;75.50;;;;;;5087917;28;20383;-73
2023/05/25 11:14:29;;;;;;;;;;;35.30;75.10;;;;;;5068746;28;19913;-72
2023/05/25 11:17:10;;;;;;;;;;;35.50;74.60;;;;;;5067592;28;20249;-72
2023/05/25 11:19:38;;;;;;;;;;;35.20;74.40;;;;;;5067805;28;20353;-71
2023/05/25 11:22:16;;;;;;;;;;;34.70;75.00;;;;;;5066903;28;19973;-73
2023/05/25 11:24:45;;;;;;;;;;;34.70;75.20;;;;;;5068593;28;19999;-73
2023/05/25 11:27:11;;;;;;;;;;;34.50;75.50;;;;;;5066609;28;19958;-72
2023/05/25 11:29:37;;;;;;;;;;;34.40;75.80;;;;;;5068034;28;19946;-71
2023/05/25 11:32:02;;;;;;;;;;;34.70;76.10;;;;;;5067750;28;20339;-72
2023/05/25 11:34:29;;;;;;;;;;;35.00;75.30;;;;;;5066168;28;20004;-71
2023/05/25 11:36:57;;;;;;;;;;;34.80;75.40;;;;;;5066498;28;19908;-73
2023/05/25 11:39:23;;;;;;;;;;;34.70;75.00;;;;;;5068038;28;19919;-73
2023/05/25 11:41:54;;;;;;;;;;;34.20;75.10;;;;;;5067963;28;19909;-73
2023/05/25 11:44:29;;;;;;;;;;;33.80;75.70;;;;;;5068357;28;19968;-73
2023/05/25 11:46:56;;;;;;;;;;;33.60;75.80;;;;;;5068454;28;19961;-73
2023/05/25 11:49:23;;;;;;;;;;;33.10;75.70;;;;;;5067015;28;19948;-73
2023/05/25 11:51:48;;;;;;;;;;;32.90;76.40;;;;;;5068149;28;19908;-73
2023/05/25 11:54:24;;;;;;;;;;;33.40;76.80;;;;;;5068127;28;19961;-74
2023/05/25 11:56:50;;;;;;;;;;;34.00;76.20;;;;;;5066777;28;19916;-73
2023/05/25 11:59:15;;;;;;;;;;;34.60;75.30;;;;;;5070741;28;20590;-75
2023/05/25 12:01:41;;;;;;;;;;;34.90;74.70;;;;;;5071912;28;19943;-73
2023/05/25 12:04:07;;;;;;;;;;;34.80;74.50;;;;;;5071640;28;19908;-75
2023/05/25 12:06:35;;;;;;;;;;;34.70;74.80;;;;;;5071824;28;20037;-73
2023/05/25 12:09:01;;;;;;;;;;;34.90;75.00;;;;;;5072112;28;19917;-71
2023/05/25 12:11:33;;;;;;;;;;;35.00;74.60;;;;;;5072572;28;19928;-72
2023/05/25 12:14:01;;;;;;;;;;;34.50;74.60;;;;;;5071636;28;19912;-71
2023/05/25 12:16:26;;;;;;;;;;;34.50;75.30;;;;;;5072030;28;19908;-71
2023/05/25 12:18:52;;;;;;;;;;;34.30;75.00;;;;;;5071693;28;20012;-72
2023/05/25 12:21:19;;;;;;;;;;;34.20;75.30;;;;;;5071208;28;19917;-72
2023/05/25 12:23:45;;;;;;;;;;;34.40;75.50;;;;;;5090535;28;19916;-72
2023/05/25 12:26:15;;;;;;;;;;;34.50;74.90;;;;;;5091643;28;19914;-72
2023/05/25 12:28:56;;;;;;;;;;;34.60;74.60;;;;;;5091673;28;19913;-72
2023/05/25 12:31:23;;;;;;;;;;;34.50;74.70;;;;;;5089420;28;19912;-71
2023/05/25 12:34:24;;;;;;;;;;;34.10;74.60;;;;;;5090603;28;20415;-71
2023/05/25 12:36:50;;;;;;;;;;;33.50;75.00;;;;;;5028566;28;20015;-71
2023/05/25 12:39:17;;;;;;;;;;;33.10;74.90;;;;;;5062187;28;19920;-71
2023/05/25 12:41:43;;;;;;;;;;;32.70;75.30;;;;;;5071192;28;19915;-71
2023/05/25 12:44:21;;;;;;;;;;;32.30;75.30;;;;;;5090400;28;20023;-71
2023/05/25 12:46:50;;;;;;;;;;;32.00;75.70;;;;;;5086976;28;19915;-71
2023/05/25 12:49:26;;;;;;;;;;;31.80;75.80;;;;;;5088389;28;19908;-71
2023/05/25 12:51:51;;;;;;;;;;;31.70;76.00;;;;;;5090555;28;20008;-72
2023/05/25 12:54:32;;;;;;;;;;;31.90;76.30;;;;;;5090757;28;19947;-71
2023/05/25 12:56:57;;;;;;;;;;;32.30;75.80;;;;;;5088373;28;20363;-71
2023/05/25 12:59:23;;;;;;;;;;;32.50;75.10;;;;;;5090683;28;19958;-72
2023/05/25 13:01:48;;;;;;;;;;;32.30;74.60;;;;;;5090348;28;19930;-74
2023/05/25 13:04:14;;;;;;;;;;;32.20;74.90;;;;;;5090039;28;19965;-72
2023/05/25 13:06:40;;;;;;;;;;;32.00;75.20;;;;;;5090690;28;19917;-71
2023/05/25 13:09:05;;;;;;;;;;;32.00;74.90;;;;;;5090408;28;20287;-72
2023/05/25 13:11:31;;;;;;;;;;;31.90;75.00;;;;;;5072552;28;19924;-72
2023/05/25 13:13:56;;;;;;;;;;;31.90;74.90;;;;;;5091410;28;19969;-72
2023/05/25 13:16:24;;;;;;;;;;;31.90;74.50;;;;;;5091622;28;19912;-71
2023/05/25 13:18:50;;;;;;;;;;;31.50;73.30;;;;;;5090986;28;19923;-71
2023/05/25 13:21:16;;;;;;;;;;;31.00;72.50;;;;;;5090883;28;19916;-71
2023/05/25 13:23:41;;;;;;;;;;;30.30;72.50;;;;;;5090997;28;19916;-71
2023/05/25 13:26:07;;;;;;;;;;;29.70;72.40;;;;;;5090443;28;19916;-71
2023/05/25 13:28:33;;;;;;;;;;;29.30;72.40;;;;;;5090626;28;19908;-71
2023/05/25 13:30:58;;;;;;;;;;;28.70;72.30;;;;;;5090362;28;19916;-71
2023/05/25 13:33:24;;;;;;;;;;;28.20;72.70;;;;;;5090800;28;19919;-72
2023/05/25 13:36:06;;;;;;;;;;;28.10;72.70;;;;;;5090431;28;19912;-71
2023/05/25 13:38:32;;;;;;;;;;;27.80;72.20;;;;;;5090115;28;19942;-71
2023/05/25 13:40:58;;;;;;;;;;;27.50;72.40;;;;;;5085785;28;19923;-71
2023/05/25 13:43:24;;;;;;;;;;;27.40;72.20;;;;;;5089935;28;20299;-71
2023/05/25 13:45:50;;;;;;;;;;;27.30;71.70;;;;;;5089177;28;19916;-72
2023/05/25 13:48:15;;;;;;;;;;;27.40;71.40;;;;;;5087528;28;20299;-71
2023/05/25 13:50:43;;;;;;;;;;;27.30;71.10;;;;;;5088559;28;19919;-71
2023/05/25 13:53:12;;;;;;;;;;;27.20;70.70;;;;;;5088979;28;19930;-71
2023/05/25 13:55:38;;;;;;;;;;;26.80;70.60;;;;;;5084997;28;19908;-71
2023/05/25 13:58:04;;;;;;;;;;;26.50;70.90;;;;;;5088251;28;19912;-70
2023/05/25 14:00:30;;;;;;;;;;;26.50;70.90;;;;;;5089008;28;20385;-70
2023/05/25 14:02:55;;;;;;;;;;;26.20;70.60;;;;;;5088216;28;19920;-71
2023/05/25 14:05:21;;;;;;;;;;;25.90;70.70;;;;;;5089276;28;19919;-71
2023/05/25 14:07:47;;;;;;;;;;;25.60;70.70;;;;;;5088185;28;19915;-70
2023/05/25 14:10:13;;;;;;;;;;;25.60;70.90;;;;;;5088142;28;20440;-71
2023/05/25 14:12:39;;;;;;;;;;;25.70;70.70;;;;;;5089622;28;19957;-69
2023/05/25 14:15:05;;;;;;;;;;;25.60;70.50;;;;;;5089334;28;19958;-69